Time;durP1;ratioP1;P1;durP2;ratioP2;P2;SDS_P1;SDS_P2;PMS_P1;PMS_P2;Temp;Humidity;BMP_temperature;BMP_pressure;BME280_temperature;BME280_humidity;BME280_pressure;Samples;Min_cycle;Max_cycle;Signal;HPM_P1;HPM_P2
2022/12/27 00:01:59;;;;;;;1.73;0.95;;;6.30;99.90;;;;;;6251486;28;20042;-81
2022/12/27 00:05:01;;;;;;;5.03;1.13;;;6.20;99.90;;;;;;6248158;28;20491;-81
2022/12/27 00:08:03;;;;;;;6.15;2.25;;;6.10;99.90;;;;;;6249945;28;20103;-82
2022/12/27 00:11:09;;;;;;;2.30;1.00;;;6.10;99.90;;;;;;6250626;28;20052;-82
2022/12/27 00:14:11;;;;;;;2.33;1.50;;;6.10;99.90;;;;;;6252492;28;20061;-83
2022/12/27 00:17:13;;;;;;;2.28;0.95;;;6.00;99.90;;;;;;6252715;28;20503;-82
2022/12/27 00:20:15;;;;;;;3.15;1.50;;;5.90;99.90;;;;;;6250142;28;20045;-82
2022/12/27 00:23:17;;;;;;;3.20;1.45;;;5.90;99.90;;;;;;6250343;28;20076;-82
2022/12/27 00:26:21;;;;;;;4.15;3.58;;;5.80;99.90;;;;;;6252615;28;20080;-82
2022/12/27 00:29:23;;;;;;;2.42;1.08;;;5.70;99.90;;;;;;6256643;28;20045;-82
2022/12/27 00:32:25;;;;;;;3.20;1.15;;;5.60;99.90;;;;;;6255930;28;20048;-82
2022/12/27 00:35:26;;;;;;;4.05;1.02;;;5.60;99.90;;;;;;6257139;28;20056;-82
2022/12/27 00:38:29;;;;;;;3.70;1.40;;;5.50;99.90;;;;;;6255723;28;20090;-82
2022/12/27 00:41:32;;;;;;;10.40;1.48;;;5.40;99.90;;;;;;6256774;28;20179;-82
2022/12/27 00:44:34;;;;;;;5.05;1.13;;;5.30;99.90;;;;;;6256277;28;20055;-82
2022/12/27 00:47:35;;;;;;;3.38;1.20;;;5.30;99.90;;;;;;6256115;28;20503;-82
2022/12/27 00:50:38;;;;;;;8.75;1.33;;;5.30;99.90;;;;;;6256968;28;20037;-82
2022/12/27 00:53:40;;;;;;;2.15;1.27;;;5.30;99.90;;;;;;6257587;28;20049;-83
2022/12/27 00:56:43;;;;;;;2.05;1.17;;;5.20;99.90;;;;;;6256551;28;20057;-82
2022/12/27 00:59:45;;;;;;;2.80;1.23;;;5.20;99.90;;;;;;6256185;28;20528;-83
2022/12/27 01:02:47;;;;;;;5.40;1.55;;;5.10;99.90;;;;;;6256578;28;20053;-80
2022/12/27 01:05:49;;;;;;;2.72;0.85;;;5.10;99.90;;;;;;6256104;28;20050;-81
2022/12/27 01:08:50;;;;;;;2.53;0.95;;;5.10;99.90;;;;;;6256084;28;20049;-81
2022/12/27 01:11:53;;;;;;;3.88;1.40;;;5.00;99.90;;;;;;6255744;28;20061;-82
2022/12/27 01:14:55;;;;;;;3.80;1.48;;;5.00;99.90;;;;;;6256967;28;20056;-81
2022/12/27 01:17:57;;;;;;;6.22;2.63;;;5.00;99.90;;;;;;6256683;28;20049;-81
2022/12/27 01:20:58;;;;;;;1.48;1.20;;;5.00;99.90;;;;;;6255155;28;20063;-81
2022/12/27 01:24:00;;;;;;;3.85;1.80;;;5.00;99.90;;;;;;6255722;28;20046;-82
2022/12/27 01:27:03;;;;;;;1.48;1.35;;;4.90;99.90;;;;;;6256748;28;20049;-81
2022/12/27 01:30:07;;;;;;;8.45;1.92;;;5.00;99.90;;;;;;6255884;28;20049;-82
2022/12/27 01:33:08;;;;;;;1.30;1.10;;;5.00;99.90;;;;;;6256052;28;20068;-83
2022/12/27 01:36:13;;;;;;;2.35;1.52;;;5.00;99.90;;;;;;6255667;28;20049;-81
2022/12/27 01:39:15;;;;;;;3.60;1.38;;;5.00;99.90;;;;;;6253482;28;20045;-81
2022/12/27 01:45:39;;;;;;;3.05;1.40;;;5.00;99.90;;;;;;6257993;28;20076;-81
2022/12/27 01:48:41;;;;;;;2.92;1.23;;;5.00;99.90;;;;;;6257625;28;20060;-80
2022/12/27 01:51:42;;;;;;;3.13;1.48;;;5.00;99.90;;;;;;6255527;28;20531;-80
2022/12/27 01:54:44;;;;;;;3.78;1.88;;;5.00;99.90;;;;;;6254221;28;20052;-82
2022/12/27 01:57:49;;;;;;;6.72;2.20;;;5.00;99.90;;;;;;6252099;28;20415;-80
2022/12/27 02:00:51;;;;;;;1.75;1.40;;;5.00;99.90;;;;;;6251044;28;20046;-80
2022/12/27 02:03:57;;;;;;;2.88;1.85;;;4.90;99.90;;;;;;6251254;28;20049;-81
2022/12/27 02:06:59;;;;;;;7.22;1.67;;;4.90;99.90;;;;;;6251425;28;20068;-81
2022/12/27 02:10:03;;;;;;;8.65;2.25;;;4.90;99.90;;;;;;6251799;28;20415;-82
2022/12/27 02:13:06;;;;;;;3.45;1.85;;;4.90;99.90;;;;;;6250827;28;20391;-82
2022/12/27 02:16:13;;;;;;;2.80;1.27;;;4.90;99.90;;;;;;6251023;28;20049;-81
2022/12/27 02:19:23;;;;;;;4.50;1.75;;;4.80;99.90;;;;;;6251323;28;20049;-81
2022/12/27 02:26:49;;;;;;;3.22;1.77;;;4.70;99.90;;;;;;6245882;28;20045;-82
2022/12/27 02:30:01;;;;;;;8.25;2.08;;;4.70;99.90;;;;;;6252585;28;20044;-82
2022/12/27 02:33:07;;;;;;;5.50;2.47;;;4.60;99.90;;;;;;6251868;28;20052;-82
2022/12/27 02:36:14;;;;;;;2.10;1.90;;;4.60;99.90;;;;;;6251545;28;20147;-83
2022/12/27 02:39:17;;;;;;;2.35;1.50;;;4.50;99.90;;;;;;6251258;28;20041;-82
2022/12/27 02:53:04;;;;;;;5.53;2.85;;;4.30;99.90;;;;;;6251611;28;20498;-82
2022/12/27 03:03:46;;;;;;;6.55;2.53;;;4.10;99.90;;;;;;6251519;28;20041;-82
2022/12/27 03:06:59;;;;;;;10.07;3.63;;;4.10;99.90;;;;;;6251605;28;20053;-82
2022/12/27 03:17:11;;;;;;;9.20;4.68;;;4.10;99.90;;;;;;6251801;28;20046;-82
2022/12/27 03:27:03;;;;;;;9.90;2.85;;;4.00;99.90;;;;;;6251028;28;20037;-82
2022/12/27 03:33:29;;;;;;;10.82;4.78;;;4.00;99.90;;;;;;6251548;28;20134;-83
2022/12/27 03:40:02;;;;;;;7.30;2.45;;;4.00;99.90;;;;;;6251953;28;20053;-83
2022/12/27 03:43:10;;;;;;;10.48;3.15;;;4.00;99.90;;;;;;6271492;22;20060;-80
2022/12/27 03:46:33;;;;;;;2.70;2.00;;;4.00;99.90;;;;;;6250190;28;20407;-82
2022/12/27 03:49:39;;;;;;;10.50;2.60;;;4.00;99.90;;;;;;6250205;28;20045;-82
2022/12/27 03:52:47;;;;;;;4.90;2.45;;;4.00;99.90;;;;;;6250084;28;20499;-81
2022/12/27 03:55:49;;;;;;;6.28;2.60;;;4.00;99.90;;;;;;6250404;28;20505;-81
2022/12/27 03:58:52;;;;;;;9.55;2.88;;;4.00;99.90;;;;;;6250457;28;20057;-81
2022/12/27 04:01:54;;;;;;;7.50;3.53;;;4.00;99.90;;;;;;6249930;28;20514;-81
2022/12/27 04:04:56;;;;;;;4.60;2.33;;;4.00;99.90;;;;;;6251032;28;20510;-79
2022/12/27 04:34:42;;;;;;;5.15;1.83;;;4.20;99.90;;;;;;6248927;28;20045;-81
2022/12/27 04:37:43;;;;;;;5.80;2.67;;;4.30;99.90;;;;;;6249866;28;20049;-79
2022/12/27 04:57:24;;;;;;;8.57;3.55;;;4.30;99.90;;;;;;6249279;28;20511;-80
2022/12/27 05:03:50;;;;;;;9.30;3.75;;;4.30;99.90;;;;;;6247568;28;20046;-80
2022/12/27 05:06:52;;;;;;;6.95;3.25;;;4.20;99.90;;;;;;6248357;28;20048;-81
2022/12/27 05:16:36;;;;;;;10.27;2.55;;;4.10;99.90;;;;;;6252549;28;20550;-80
2022/12/27 05:19:38;;;;;;;4.10;2.25;;;4.10;99.90;;;;;;6251187;28;20046;-79
2022/12/27 05:25:59;;;;;;;13.70;4.65;;;4.00;99.90;;;;;;6252781;28;20045;-80
2022/12/27 05:29:02;;;;;;;17.27;6.72;;;4.00;99.90;;;;;;6251733;28;20060;-81
2022/12/27 05:32:04;;;;;;;16.48;9.70;;;3.90;99.90;;;;;;6251808;28;20061;-79
2022/12/27 05:35:06;;;;;;;19.90;8.85;;;3.80;99.90;;;;;;6250700;28;20057;-79
2022/12/27 05:38:08;;;;;;;14.93;7.53;;;3.80;99.90;;;;;;6250577;28;20045;-79
2022/12/27 05:41:10;;;;;;;16.00;7.18;;;3.70;99.90;;;;;;6251309;28;20041;-82
2022/12/27 05:44:13;;;;;;;23.13;7.15;;;3.60;99.90;;;;;;6251269;28;20056;-79
2022/12/27 05:47:15;;;;;;;8.43;3.85;;;3.60;99.90;;;;;;6250347;28;20049;-80
2022/12/27 05:50:17;;;;;;;4.88;3.30;;;3.60;99.90;;;;;;6250560;28;20060;-79
2022/12/27 05:53:18;;;;;;;4.68;2.40;;;3.50;99.90;;;;;;6251244;28;20537;-79
2022/12/27 05:56:21;;;;;;;3.42;1.85;;;3.40;99.90;;;;;;6250706;28;20503;-79
2022/12/27 05:59:24;;;;;;;6.55;2.28;;;3.40;99.90;;;;;;6250395;28;20049;-80
2022/12/27 06:02:26;;;;;;;4.68;2.75;;;3.40;99.90;;;;;;6250577;28;20045;-79
2022/12/27 06:05:27;;;;;;;14.63;2.45;;;3.40;99.90;;;;;;6251182;28;20527;-80
2022/12/27 06:08:29;;;;;;;3.70;1.90;;;3.40;99.90;;;;;;6250298;28;20061;-79
2022/12/27 06:11:31;;;;;;;7.15;2.17;;;3.40;99.90;;;;;;6250470;28;20502;-79
2022/12/27 06:14:34;;;;;;;3.75;2.20;;;3.30;99.90;;;;;;6250917;28;20050;-80
2022/12/27 06:17:36;;;;;;;4.15;2.28;;;3.30;99.90;;;;;;6252942;28;20049;-80
2022/12/27 06:20:38;;;;;;;3.05;1.85;;;3.30;99.90;;;;;;6269230;28;20059;-80
2022/12/27 06:23:41;;;;;;;8.48;2.78;;;3.30;99.90;;;;;;6265153;28;20056;-81
2022/12/27 06:26:43;;;;;;;4.65;2.33;;;3.30;99.90;;;;;;6252717;28;20088;-81
2022/12/27 06:29:46;;;;;;;5.03;2.08;;;3.30;99.90;;;;;;6251911;28;20058;-81
2022/12/27 06:32:48;;;;;;;9.40;2.88;;;3.30;99.90;;;;;;6257107;28;20052;-81
2022/12/27 06:35:49;;;;;;;7.55;3.00;;;3.30;99.90;;;;;;6257535;28;20053;-81
2022/12/27 06:38:51;;;;;;;12.65;4.18;;;3.30;99.90;;;;;;6254057;28;20052;-81
2022/12/27 06:41:55;;;;;;;13.88;5.05;;;3.30;99.90;;;;;;6254123;28;20086;-80
2022/12/27 06:44:58;;;;;;;7.82;3.88;;;3.30;99.90;;;;;;6253895;28;20053;-80
2022/12/27 06:47:59;;;;;;;14.57;3.10;;;3.40;99.90;;;;;;6253949;28;20045;-80
2022/12/27 06:51:03;;;;;;;2.78;1.98;;;3.30;99.90;;;;;;6254307;28;20052;-80
2022/12/27 06:54:05;;;;;;;7.38;3.03;;;3.40;99.90;;;;;;6255068;28;20426;-79
2022/12/27 06:57:07;;;;;;;2.33;1.60;;;3.40;99.90;;;;;;6253196;28;20056;-79
2022/12/27 07:00:12;;;;;;;5.18;1.70;;;3.40;99.90;;;;;;6251195;28;20049;-78
2022/12/27 07:03:13;;;;;;;4.97;3.78;;;3.40;99.90;;;;;;6258371;28;20056;-80
2022/12/27 07:06:15;;;;;;;3.65;2.15;;;3.40;99.90;;;;;;6259664;28;20053;-81
2022/12/27 07:09:17;;;;;;;3.35;2.08;;;3.40;99.90;;;;;;6256987;28;20414;-79
2022/12/27 07:12:19;;;;;;;4.25;2.45;;;3.40;99.90;;;;;;6257195;28;20084;-79
2022/12/27 07:15:22;;;;;;;4.82;2.10;;;3.40;99.90;;;;;;6257330;28;20051;-79
2022/12/27 07:18:23;;;;;;;7.72;2.70;;;3.40;99.90;;;;;;6256632;28;20049;-79
2022/12/27 07:21:27;;;;;;;4.78;2.22;;;3.40;99.90;;;;;;6256372;28;20064;-79
2022/12/27 07:24:31;;;;;;;4.22;2.83;;;3.40;99.90;;;;;;6255182;28;20076;-80
2022/12/27 07:27:33;;;;;;;7.47;2.85;;;3.40;99.90;;;;;;6255508;28;20053;-81
2022/12/27 07:30:39;;;;;;;4.38;2.58;;;3.40;99.90;;;;;;6255472;28;20064;-79
2022/12/27 07:33:41;;;;;;;9.95;2.88;;;3.30;99.90;;;;;;6255626;28;20045;-79
2022/12/27 07:36:43;;;;;;;4.13;3.42;;;3.30;99.90;;;;;;6256664;28;20060;-79
2022/12/27 07:39:45;;;;;;;7.40;4.85;;;3.40;99.90;;;;;;6256491;28;20049;-79
2022/12/27 07:42:47;;;;;;;5.20;2.55;;;3.30;99.90;;;;;;6255245;28;20417;-79
2022/12/27 07:45:50;;;;;;;8.23;3.15;;;3.40;99.90;;;;;;6256896;28;20052;-81
2022/12/27 07:48:53;;;;;;;11.70;3.60;;;3.40;99.90;;;;;;6256237;28;20063;-80
2022/12/27 07:51:56;;;;;;;8.75;3.22;;;3.40;99.90;;;;;;6255285;28;20080;-81
2022/12/27 07:54:57;;;;;;;4.32;2.63;;;3.40;99.90;;;;;;6199680;28;20046;-80
2022/12/27 07:57:59;;;;;;;7.53;3.25;;;3.40;99.90;;;;;;6250838;28;20057;-80
2022/12/27 08:01:03;;;;;;;3.78;2.55;;;3.40;99.90;;;;;;6255821;28;20048;-79
2022/12/27 08:04:04;;;;;;;6.65;2.95;;;3.50;99.90;;;;;;6251103;28;20042;-80
2022/12/27 08:07:10;;;;;;;6.85;3.47;;;3.50;99.90;;;;;;6249233;28;20049;-79
2022/12/27 08:10:12;;;;;;;4.30;2.35;;;3.60;99.90;;;;;;6249228;28;20411;-80
2022/12/27 08:13:14;;;;;;;9.45;2.53;;;3.60;99.90;;;;;;6249234;28;20072;-78
2022/12/27 08:16:19;;;;;;;9.88;2.50;;;3.70;99.90;;;;;;6246264;28;20519;-78
2022/12/27 08:19:21;;;;;;;8.73;2.85;;;3.80;99.90;;;;;;6246142;28;20101;-79
2022/12/27 08:22:23;;;;;;;4.38;2.88;;;4.00;99.90;;;;;;6249425;28;20121;-78
2022/12/27 08:25:25;;;;;;;7.80;3.58;;;4.10;99.90;;;;;;6252179;28;20045;-79
2022/12/27 08:28:30;;;;;;;5.88;2.80;;;4.20;99.90;;;;;;6249131;28;20049;-79
2022/12/27 08:31:33;;;;;;;6.13;3.28;;;4.40;99.90;;;;;;6249867;28;20046;-78
2022/12/27 08:34:35;;;;;;;7.85;2.72;;;4.60;99.90;;;;;;6249252;28;20076;-78
2022/12/27 08:37:36;;;;;;;4.95;2.30;;;4.80;99.90;;;;;;6249082;28;20076;-79
2022/12/27 08:40:40;;;;;;;4.55;2.20;;;5.00;99.90;;;;;;6247349;28;20045;-79
2022/12/27 08:43:42;;;;;;;5.38;1.95;;;5.20;99.90;;;;;;6248620;28;20072;-80
2022/12/27 08:46:45;;;;;;;2.25;1.92;;;5.30;99.90;;;;;;6249251;28;20041;-78
2022/12/27 08:49:47;;;;;;;6.75;2.90;;;5.60;99.90;;;;;;6253107;28;20396;-78
2022/12/27 08:52:49;;;;;;;5.85;1.98;;;5.80;99.90;;;;;;6253929;28;20392;-78
2022/12/27 08:55:50;;;;;;;6.00;2.08;;;5.90;99.90;;;;;;6252131;28;20420;-80
2022/12/27 08:58:52;;;;;;;11.10;3.38;;;6.00;99.90;;;;;;6252124;28;20050;-78
2022/12/27 09:01:55;;;;;;;8.27;2.67;;;6.10;99.90;;;;;;6252603;28;20510;-79
2022/12/27 09:04:57;;;;;;;6.82;3.53;;;6.20;99.90;;;;;;6252375;28;20050;-80
2022/12/27 09:07:58;;;;;;;6.40;4.03;;;6.40;99.90;;;;;;6251242;28;20042;-79
2022/12/27 09:11:08;;;;;;;4.60;2.97;;;6.60;99.90;;;;;;6252201;28;20049;-78
2022/12/27 09:14:10;;;;;;;3.30;2.00;;;6.70;99.90;;;;;;6251260;28;20046;-79
2022/12/27 09:17:13;;;;;;;10.77;5.05;;;6.80;99.90;;;;;;6252682;28;20050;-79
2022/12/27 09:20:15;;;;;;;4.60;2.53;;;6.90;99.90;;;;;;6254023;28;20517;-78
2022/12/27 09:23:16;;;;;;;6.22;3.80;;;6.90;99.90;;;;;;6253070;28;20050;-79
2022/12/27 09:26:20;;;;;;;7.65;2.47;;;7.00;99.90;;;;;;6252690;28;20061;-78
2022/12/27 09:29:22;;;;;;;5.72;3.58;;;7.00;99.90;;;;;;6253651;28;20391;-80
2022/12/27 09:32:26;;;;;;;5.55;3.17;;;7.00;99.90;;;;;;6252977;28;20041;-78
2022/12/27 09:35:27;;;;;;;5.03;3.00;;;6.90;99.90;;;;;;6253645;28;20103;-79
2022/12/27 09:38:29;;;;;;;7.55;2.78;;;6.90;99.90;;;;;;6253376;28;20046;-79
2022/12/27 09:41:43;;;;;;;4.40;2.70;;;6.80;99.90;;;;;;6273056;22;20056;-79
2022/12/27 09:44:51;;;;;;;3.40;2.47;;;6.80;99.90;;;;;;6252032;28;20054;-79
2022/12/27 09:47:56;;;;;;;;;;;6.90;99.90;;;;;;6253108;28;20056;-79
2022/12/27 09:51:00;;;;;;;3.63;2.15;;;7.10;99.90;;;;;;6253010;28;19921;-79
2022/12/27 09:54:07;;;;;;;8.52;3.53;;;7.30;99.90;;;;;;6252815;28;20052;-79
2022/12/27 09:57:16;;;;;;;4.07;2.80;;;7.60;99.90;;;;;;6254229;28;20427;-79
2022/12/27 10:00:23;;;;;;;9.07;2.45;;;7.80;99.90;;;;;;6252163;28;20045;-79
2022/12/27 10:03:27;;;;;;;2.92;1.90;;;8.00;99.90;;;;;;6246147;28;20046;-79
2022/12/27 10:06:49;;;;;;;4.38;1.88;;;8.10;99.90;;;;;;6253744;28;20048;-79
2022/12/27 10:10:00;;;;;;;2.35;1.50;;;8.20;99.90;;;;;;6253516;28;20045;-79
2022/12/27 10:13:10;;;;;;;2.95;2.05;;;8.20;99.90;;;;;;6251999;28;20041;-79
2022/12/27 10:16:25;;;;;;;6.57;3.00;;;8.20;99.90;;;;;;6253296;28;20061;-79
2022/12/27 10:19:38;;;;;;;3.83;2.33;;;8.30;99.90;;;;;;6253569;28;20045;-79
2022/12/27 10:22:45;;;;;;;7.05;2.90;;;8.30;99.90;;;;;;6252829;28;20503;-79
2022/12/27 10:25:49;;;;;;;3.90;2.03;;;8.30;99.90;;;;;;6253684;28;20061;-79
2022/12/27 10:28:58;;;;;;;2.95;1.83;;;8.50;99.90;;;;;;6252312;28;20051;-79
2022/12/27 10:32:00;;;;;;;3.83;1.27;;;8.60;99.90;;;;;;6253626;28;20037;-79
2022/12/27 10:35:05;;;;;;;2.63;2.00;;;8.90;99.90;;;;;;6252222;28;20053;-79
2022/12/27 10:38:10;;;;;;;5.63;1.70;;;9.30;99.90;;;;;;6252641;28;20060;-79
2022/12/27 10:41:23;;;;;;;4.00;2.15;;;9.80;99.90;;;;;;6252306;28;20052;-79
2022/12/27 10:44:25;;;;;;;4.90;1.90;;;10.30;99.90;;;;;;6252447;28;20060;-81
2022/12/27 10:47:27;;;;;;;2.63;1.85;;;10.60;99.90;;;;;;6251864;28;20041;-80
2022/12/27 10:50:30;;;;;;;9.15;1.90;;;10.90;99.90;;;;;;6253544;28;20073;-79
2022/12/27 10:53:35;;;;;;;10.93;2.33;;;10.90;99.90;;;;;;6253894;28;20041;-79
2022/12/27 10:56:40;;;;;;;5.35;2.13;;;10.90;99.90;;;;;;6251999;28;20056;-79
2022/12/27 10:59:41;;;;;;;3.10;1.48;;;10.80;99.90;;;;;;6252634;28;20072;-79
2022/12/27 11:02:50;;;;;;;3.58;1.50;;;10.60;99.90;;;;;;6252137;28;20053;-79
2022/12/27 11:06:01;;;;;;;4.05;1.50;;;10.50;99.90;;;;;;6253350;28;20057;-79
2022/12/27 11:09:29;;;;;;;2.85;1.58;;;10.50;99.90;;;;;;6251969;28;20056;-79
2022/12/27 11:12:31;;;;;;;8.27;1.58;;;10.60;99.90;;;;;;6251872;28;20045;-79
2022/12/27 11:15:36;;;;;;;7.07;2.33;;;10.80;99.90;;;;;;6251692;28;20096;-79
2022/12/27 11:18:45;;;;;;;5.35;1.90;;;10.90;99.90;;;;;;6251802;28;20046;-79
2022/12/27 11:21:49;;;;;;;10.77;2.00;;;11.20;99.90;;;;;;6252615;28;20592;-79
2022/12/27 11:24:53;;;;;;;3.78;2.13;;;11.40;99.90;;;;;;6252539;28;20041;-79
2022/12/27 11:27:58;;;;;;;3.60;1.63;;;11.60;99.90;;;;;;6250980;28;20559;-79
2022/12/27 11:31:02;;;;;;;4.50;2.25;;;11.80;99.90;;;;;;6251607;28;20052;-78
2022/12/27 11:34:07;;;;;;;11.00;2.70;;;11.70;99.90;;;;;;6251268;28;20045;-78
2022/12/27 11:37:14;;;;;;;5.15;2.50;;;11.70;99.90;;;;;;6250837;28;20056;-78
2022/12/27 11:40:26;;;;;;;4.18;1.98;;;11.60;99.90;;;;;;6250299;28;20514;-79
2022/12/27 11:43:33;;;;;;;4.47;1.92;;;11.50;99.90;;;;;;6251943;28;20550;-78
2022/12/27 11:46:39;;;;;;;3.42;2.25;;;11.40;99.90;;;;;;6252565;28;20407;-79
2022/12/27 11:49:49;;;;;;;9.93;3.28;;;11.30;99.90;;;;;;6252551;28;20511;-79
2022/12/27 11:53:11;;;;;;;13.70;2.20;;;11.30;99.90;;;;;;6252883;28;20048;-80
2022/12/27 11:56:19;;;;;;;6.72;2.10;;;11.30;99.90;;;;;;6254149;28;20558;-80
2022/12/27 11:59:39;;;;;;;7.35;2.55;;;11.20;99.90;;;;;;6252951;28;20060;-79
2022/12/27 12:02:59;;;;;;;6.72;2.30;;;11.00;99.90;;;;;;6252556;28;20055;-79
2022/12/27 12:06:13;;;;;;;5.30;2.03;;;11.00;99.90;;;;;;6250496;28;20061;-79
2022/12/27 12:09:40;;;;;;;4.53;2.22;;;11.00;99.90;;;;;;6250387;28;20056;-80
2022/12/27 12:13:05;;;;;;;4.45;1.88;;;11.00;99.90;;;;;;6259390;28;20052;-79
2022/12/27 12:16:29;;;;;;;2.40;1.42;;;11.10;99.90;;;;;;6218406;28;20419;-79
2022/12/27 12:19:54;;;;;;;4.38;1.35;;;11.10;99.90;;;;;;6235543;28;20060;-79
2022/12/27 12:23:06;;;;;;;5.40;1.80;;;11.10;99.90;;;;;;6233797;28;20057;-79
2022/12/27 12:26:18;;;;;;;4.10;1.55;;;11.20;99.90;;;;;;6232685;28;20054;-80
2022/12/27 12:29:53;;;;;;;3.22;1.88;;;11.30;99.90;;;;;;6233343;28;20060;-80
2022/12/27 12:33:11;;;;;;;4.82;2.00;;;11.40;99.90;;;;;;6255943;28;20038;-79
2022/12/27 12:36:44;;;;;;;7.65;2.55;;;11.50;99.90;;;;;;6256629;28;20055;-80
2022/12/27 12:40:07;;;;;;;4.40;1.38;;;11.70;99.90;;;;;;6258177;28;20073;-79
2022/12/27 12:43:27;;;;;;;5.35;2.28;;;11.60;99.90;;;;;;6256231;28;20418;-79
2022/12/27 12:46:37;;;;;;;10.05;7.88;;;11.40;99.90;;;;;;6256688;28;20046;-79
2022/12/27 12:49:54;;;;;;;6.65;3.00;;;11.20;99.90;;;;;;6255408;28;20053;-80
2022/12/27 12:53:08;;;;;;;5.50;3.55;;;11.00;99.90;;;;;;6256528;28;20045;-82
2022/12/27 12:56:32;;;;;;;8.00;2.72;;;10.80;99.90;;;;;;6256202;28;20046;-80
2022/12/27 12:59:58;;;;;;;5.70;4.88;;;10.70;99.90;;;;;;6254669;28;20049;-80
2022/12/27 13:03:34;;;;;;;17.88;11.57;;;10.80;99.90;;;;;;6255300;28;20518;-80
2022/12/27 13:06:56;;;;;;;16.63;9.25;;;10.90;99.90;;;;;;6253060;28;20051;-79
2022/12/27 13:10:14;;;;;;;7.55;4.55;;;11.10;99.90;;;;;;6255357;28;20046;-79
2022/12/27 13:13:22;;;;;;;15.35;9.40;;;11.20;99.90;;;;;;6254398;28;20087;-79
2022/12/27 13:16:37;;;;;;;7.10;1.77;;;11.20;99.90;;;;;;6254217;28;20046;-81
2022/12/27 13:19:55;;;;;;;3.45;1.30;;;11.30;99.90;;;;;;6253116;28;20045;-79
2022/12/27 13:23:17;;;;;;;16.05;11.20;;;11.50;99.90;;;;;;6253131;28;20507;-82
2022/12/27 13:26:25;;;;;;;10.70;2.97;;;11.60;99.90;;;;;;6254305;28;20049;-81
2022/12/27 13:29:51;;;;;;;11.57;2.90;;;11.80;99.90;;;;;;6254396;28;20057;-80
2022/12/27 13:33:20;;;;;;;1.38;1.15;;;11.80;99.90;;;;;;6247820;28;20052;-80
2022/12/27 13:36:28;;;;;;;9.90;2.42;;;11.80;99.90;;;;;;6250383;28;20388;-80
2022/12/27 13:39:41;;;;;;;3.28;1.60;;;11.60;99.90;;;;;;6252672;28;20045;-81
2022/12/27 13:43:16;;;;;;;5.53;3.80;;;11.50;99.90;;;;;;6251725;28;20050;-80
2022/12/27 13:46:40;;;;;;;8.82;3.53;;;11.40;99.90;;;;;;6253537;28;20062;-80
2022/12/27 13:50:11;;;;;;;5.45;1.30;;;11.50;99.90;;;;;;6252262;28;20057;-79
2022/12/27 13:53:35;;;;;;;7.50;2.22;;;11.60;99.90;;;;;;6252753;28;20470;-80
2022/12/27 13:56:45;;;;;;;2.05;1.00;;;11.50;99.90;;;;;;6252658;28;20648;-80
2022/12/27 14:00:09;;;;;;;4.03;1.45;;;11.50;99.90;;;;;;6252204;28;20076;-80
2022/12/27 14:03:36;;;;;;;5.55;1.85;;;11.40;99.90;;;;;;6252505;28;20049;-80
2022/12/27 14:07:18;;;;;;;4.63;2.28;;;11.40;99.90;;;;;;6251871;28;20050;-80
2022/12/27 14:10:29;;;;;;;4.40;1.60;;;11.20;99.90;;;;;;6217706;28;20049;-80
2022/12/27 14:13:35;;;;;;;5.72;1.55;;;11.10;99.90;;;;;;6252926;28;20438;-80
2022/12/27 14:16:48;;;;;;;6.65;1.15;;;10.80;99.90;;;;;;6252553;28;20533;-80
2022/12/27 14:20:12;;;;;;;3.53;1.40;;;10.50;99.90;;;;;;6250766;28;20050;-79
2022/12/27 14:23:29;;;;;;;4.18;1.67;;;10.30;99.90;;;;;;6253579;28;20499;-80
2022/12/27 14:27:04;;;;;;;5.70;1.63;;;10.00;99.90;;;;;;6252805;28;20053;-80
2022/12/27 14:30:47;;;;;;;3.58;1.73;;;9.80;99.90;;;;;;6252400;28;20499;-80
2022/12/27 14:34:31;;;;;;;2.45;1.20;;;9.60;99.90;;;;;;6248602;28;20045;-79
2022/12/27 14:38:10;;;;;;;4.30;1.50;;;9.30;99.90;;;;;;6230487;28;20053;-79
2022/12/27 14:41:57;;;;;;;5.18;1.13;;;9.20;99.90;;;;;;6251666;28;20499;-80
2022/12/27 14:45:36;;;;;;;4.53;1.58;;;9.00;99.90;;;;;;6224419;28;20054;-80
2022/12/27 14:49:01;;;;;;;6.63;1.30;;;8.90;99.90;;;;;;6251825;28;20049;-79
2022/12/27 14:52:39;;;;;;;3.92;1.58;;;8.70;99.90;;;;;;6251761;28;20049;-80
2022/12/27 14:55:48;;;;;;;12.95;2.08;;;8.50;99.90;;;;;;6251910;28;20045;-81
2022/12/27 14:59:08;;;;;;;2.90;1.60;;;8.40;99.90;;;;;;6252496;28;20064;-80
2022/12/27 15:02:32;;;;;;;3.45;1.80;;;8.30;99.90;;;;;;6252339;28;20533;-80
2022/12/27 15:05:45;;;;;;;4.07;1.52;;;8.10;99.90;;;;;;6254008;28;20057;-80
2022/12/27 15:09:00;;;;;;;7.93;2.47;;;8.00;99.90;;;;;;6250885;28;20072;-81
2022/12/27 15:12:19;;;;;;;8.40;2.00;;;7.90;99.90;;;;;;6249713;28;20052;-79
2022/12/27 15:15:33;;;;;;;2.65;1.30;;;7.80;99.90;;;;;;6250647;28;20050;-79
2022/12/27 15:18:52;;;;;;;5.30;2.83;;;7.70;99.90;;;;;;6249204;28;20057;-79
2022/12/27 15:22:07;;;;;;;7.18;2.13;;;7.60;99.90;;;;;;6250001;28;20418;-81
2022/12/27 15:25:21;;;;;;;3.00;1.70;;;7.60;99.90;;;;;;6250518;28;20069;-80
2022/12/27 15:28:33;;;;;;;5.75;2.30;;;7.50;99.90;;;;;;6248914;28;20049;-79
2022/12/27 15:31:43;;;;;;;4.20;1.55;;;7.40;99.90;;;;;;6251344;28;20077;-81
2022/12/27 15:34:58;;;;;;;3.45;1.92;;;7.30;99.90;;;;;;6248248;28;20045;-78
2022/12/27 15:38:07;;;;;;;4.10;2.47;;;7.20;99.90;;;;;;6244847;28;20045;-79
2022/12/27 15:41:35;;;;;;;2.80;1.70;;;7.10;99.90;;;;;;6248804;28;20049;-79
2022/12/27 15:44:49;;;;;;;4.55;1.77;;;7.10;99.90;;;;;;6246468;28;20494;-78
2022/12/27 15:48:09;;;;;;;9.20;3.35;;;6.90;99.90;;;;;;6245066;28;20129;-80
2022/12/27 15:51:19;;;;;;;10.15;7.18;;;6.80;99.90;;;;;;6246240;28;20052;-79
2022/12/27 15:54:51;;;;;;;14.45;9.65;;;6.70;99.90;;;;;;6246489;28;20046;-79
2022/12/27 15:58:09;;;;;;;12.88;7.95;;;6.60;99.90;;;;;;6244963;28;20053;-79
2022/12/27 16:01:28;;;;;;;9.65;7.45;;;6.50;99.90;;;;;;6246187;28;20045;-80
2022/12/27 16:04:46;;;;;;;6.25;2.25;;;6.40;99.90;;;;;;6223076;28;20045;-79
2022/12/27 16:07:51;;;;;;;6.15;2.85;;;6.30;99.90;;;;;;6223441;28;20056;-81
2022/12/27 16:10:55;;;;;;;6.43;2.42;;;6.20;99.90;;;;;;6223426;28;20507;-80
2022/12/27 16:14:23;;;;;;;6.80;2.00;;;6.00;99.90;;;;;;6223839;28;20416;-79
2022/12/27 16:17:34;;;;;;;6.30;1.85;;;5.90;99.90;;;;;;6222481;28;20049;-80
2022/12/27 16:20:36;;;;;;;4.22;1.92;;;5.70;99.90;;;;;;6225477;28;20042;-80
2022/12/27 16:23:45;;;;;;;7.82;2.33;;;5.50;99.90;;;;;;6246078;28;20080;-79
2022/12/27 16:27:00;;;;;;;4.05;1.85;;;5.40;99.90;;;;;;6246683;28;20049;-79
2022/12/27 16:30:02;;;;;;;11.30;2.50;;;5.20;99.90;;;;;;6247359;28;20049;-79
2022/12/27 16:33:05;;;;;;;9.00;3.33;;;5.10;99.90;;;;;;6246538;28;20048;-79
2022/12/27 16:36:16;;;;;;;6.20;4.25;;;5.00;99.90;;;;;;6245275;28;20049;-78
2022/12/27 16:39:48;;;;;;;5.00;3.83;;;4.90;99.90;;;;;;6246002;28;20527;-80
2022/12/27 16:46:43;;;;;;;6.55;2.20;;;4.70;99.90;;;;;;6317133;27;20409;-80
2022/12/27 16:50:03;;;;;;;4.88;3.08;;;4.60;99.90;;;;;;6290679;28;20060;-78
2022/12/27 16:53:20;;;;;;;8.15;3.05;;;4.40;99.90;;;;;;6292237;28;20045;-80
2022/12/27 16:56:23;;;;;;;8.45;2.72;;;4.30;99.90;;;;;;6278356;28;20522;-81
2022/12/27 16:59:58;;;;;;;5.25;2.08;;;4.20;99.90;;;;;;6271175;28;20049;-81
2022/12/27 17:03:30;;;;;;;10.88;4.22;;;4.10;99.90;;;;;;6269262;28;20659;-79
2022/12/27 17:06:56;;;;;;;6.50;3.00;;;3.90;99.90;;;;;;6268686;28;20056;-81
2022/12/27 17:10:34;;;;;;;17.45;5.00;;;3.90;99.90;;;;;;6269254;28;20064;-80
2022/12/27 17:13:48;;;;;;;8.95;3.95;;;3.80;99.90;;;;;;6267591;28;20060;-79
2022/12/27 17:16:53;;;;;;;6.32;4.97;;;3.70;99.90;;;;;;6266985;28;20053;-78
2022/12/27 17:20:00;;;;;;;10.80;6.68;;;3.80;99.90;;;;;;6266695;28;20506;-79
2022/12/27 17:23:04;;;;;;;87.47;28.83;;;3.80;99.90;;;;;;6267418;28;20052;-79
2022/12/27 17:26:22;;;;;;;371.42;132.55;;;4.00;99.90;;;;;;6267292;28;20053;-80
2022/12/27 17:29:42;;;;;;;1063.65;429.55;;;4.20;99.90;;;;;;6290998;28;20056;-79
2022/12/27 17:33:07;;;;;;;227.32;78.78;;;4.60;99.90;;;;;;6290855;28;20048;-80
2022/12/27 17:36:28;;;;;;;18.38;13.43;;;4.90;99.90;;;;;;6291003;28;20049;-79
2022/12/27 17:40:07;;;;;;;17.25;9.02;;;4.80;99.90;;;;;;6284220;28;20510;-79
2022/12/27 17:46:54;;;;;;;8.90;4.72;;;4.10;99.90;;;;;;6290894;28;20132;-79
2022/12/27 17:49:58;;;;;;;4.82;3.15;;;3.80;99.90;;;;;;6290551;28;20056;-81
2022/12/27 18:00:02;;;;;;;13.27;2.35;;;3.20;99.90;;;;;;6281196;28;20632;-79
2022/12/27 18:03:08;;;;;;;5.07;2.28;;;3.10;99.90;;;;;;6299459;28;20165;-79
2022/12/27 18:06:11;;;;;;;5.18;2.58;;;3.00;99.90;;;;;;6298665;28;20044;-81
2022/12/27 18:09:33;;;;;;;11.80;4.30;;;2.90;99.90;;;;;;6298638;28;20052;-80
2022/12/27 18:12:38;;;;;;;8.25;3.38;;;2.80;99.90;;;;;;6298837;28;20044;-80
2022/12/27 18:15:44;;;;;;;15.10;5.53;;;2.80;99.90;;;;;;6299513;28;20044;-80
2022/12/27 18:18:48;;;;;;;9.50;4.93;;;2.90;99.90;;;;;;6299027;28;20052;-79
2022/12/27 18:21:58;;;;;;;7.55;3.78;;;3.50;99.90;;;;;;6300474;28;20052;-79
2022/12/27 18:24:59;;;;;;;4.50;4.10;;;4.00;99.90;;;;;;6301385;28;20048;-79
2022/12/27 18:28:04;;;;;;;7.18;3.85;;;4.20;99.90;;;;;;6298288;28;20045;-79
2022/12/27 18:31:14;;;;;;;8.25;3.60;;;4.20;99.90;;;;;;6298997;28;20036;-80